sensor_id;sensor_type;location;lat;lon;timestamp;P1;durP1;ratioP1;P2;durP2;ratioP2
19339;SDS011;9804;52.350;6.684;2022-10-16T00:01:28;8.65;;;2.50;;
19339;SDS011;9804;52.350;6.684;2022-10-16T00:03:55;8.30;;;2.95;;
19339;SDS011;9804;52.350;6.684;2022-10-16T00:06:22;7.38;;;3.00;;
19339;SDS011;9804;52.350;6.684;2022-10-16T00:08:48;7.75;;;3.08;;
19339;SDS011;9804;52.350;6.684;2022-10-16T00:11:24;7.63;;;3.63;;
19339;SDS011;9804;52.350;6.684;2022-10-16T00:13:52;7.00;;;3.03;;
19339;SDS011;9804;52.350;6.684;2022-10-16T00:16:21;8.60;;;3.83;;
19339;SDS011;9804;52.350;6.684;2022-10-16T00:18:46;6.80;;;3.20;;
19339;SDS011;9804;52.350;6.684;2022-10-16T00:21:17;6.45;;;2.85;;
19339;SDS011;9804;52.350;6.684;2022-10-16T00:23:44;10.43;;;2.95;;
19339;SDS011;9804;52.350;6.684;2022-10-16T00:26:15;10.75;;;2.75;;
19339;SDS011;9804;52.350;6.684;2022-10-16T00:28:41;5.95;;;2.80;;
19339;SDS011;9804;52.350;6.684;2022-10-16T00:31:07;7.30;;;2.78;;
19339;SDS011;9804;52.350;6.684;2022-10-16T00:33:35;5.22;;;2.35;;
19339;SDS011;9804;52.350;6.684;2022-10-16T00:36:02;6.90;;;2.97;;
19339;SDS011;9804;52.350;6.684;2022-10-16T00:38:28;12.77;;;4.40;;
19339;SDS011;9804;52.350;6.684;2022-10-16T00:40:53;10.30;;;3.35;;
19339;SDS011;9804;52.350;6.684;2022-10-16T00:48:39;6.85;;;3.30;;
19339;SDS011;9804;52.350;6.684;2022-10-16T00:51:05;9.52;;;3.03;;
19339;SDS011;9804;52.350;6.684;2022-10-16T00:53:32;5.63;;;3.03;;
19339;SDS011;9804;52.350;6.684;2022-10-16T00:55:59;10.73;;;3.25;;
19339;SDS011;9804;52.350;6.684;2022-10-16T00:58:24;8.05;;;2.78;;
19339;SDS011;9804;52.350;6.684;2022-10-16T01:00:50;7.75;;;2.70;;
19339;SDS011;9804;52.350;6.684;2022-10-16T01:03:22;8.32;;;3.08;;
19339;SDS011;9804;52.350;6.684;2022-10-16T01:06:11;7.00;;;2.63;;
19339;SDS011;9804;52.350;6.684;2022-10-16T01:09:02;7.30;;;2.60;;
19339;SDS011;9804;52.350;6.684;2022-10-16T01:14:26;7.90;;;2.60;;
19339;SDS011;9804;52.350;6.684;2022-10-16T01:17:26;6.38;;;2.30;;
19339;SDS011;9804;52.350;6.684;2022-10-16T01:22:53;8.73;;;2.70;;
19339;SDS011;9804;52.350;6.684;2022-10-16T01:28:18;6.53;;;2.40;;
19339;SDS011;9804;52.350;6.684;2022-10-16T01:30:48;4.80;;;2.80;;
19339;SDS011;9804;52.350;6.684;2022-10-16T01:33:23;6.50;;;3.22;;
19339;SDS011;9804;52.350;6.684;2022-10-16T01:35:53;9.35;;;3.35;;
19339;SDS011;9804;52.350;6.684;2022-10-16T01:40:55;9.70;;;3.33;;
19339;SDS011;9804;52.350;6.684;2022-10-16T01:43:27;6.25;;;3.78;;
19339;SDS011;9804;52.350;6.684;2022-10-16T01:46:00;6.55;;;2.92;;
19339;SDS011;9804;52.350;6.684;2022-10-16T01:48:26;8.48;;;3.78;;
19339;SDS011;9804;52.350;6.684;2022-10-16T01:50:54;8.93;;;3.60;;
19339;SDS011;9804;52.350;6.684;2022-10-16T01:53:23;9.15;;;4.25;;
19339;SDS011;9804;52.350;6.684;2022-10-16T01:55:50;5.90;;;3.55;;
19339;SDS011;9804;52.350;6.684;2022-10-16T01:58:19;8.30;;;3.63;;
19339;SDS011;9804;52.350;6.684;2022-10-16T02:00:46;11.07;;;3.97;;
19339;SDS011;9804;52.350;6.684;2022-10-16T02:03:13;9.73;;;4.35;;
19339;SDS011;9804;52.350;6.684;2022-10-16T02:05:41;7.55;;;4.05;;
19339;SDS011;9804;52.350;6.684;2022-10-16T02:08:12;14.68;;;4.97;;
19339;SDS011;9804;52.350;6.684;2022-10-16T02:10:38;10.50;;;4.22;;
19339;SDS011;9804;52.350;6.684;2022-10-16T02:13:38;7.55;;;4.13;;
19339;SDS011;9804;52.350;6.684;2022-10-16T02:15:58;10.65;;;4.57;;
19339;SDS011;9804;52.350;6.684;2022-10-16T02:18:23;9.95;;;5.43;;
19339;SDS011;9804;52.350;6.684;2022-10-16T02:21:08;9.73;;;5.78;;
19339;SDS011;9804;52.350;6.684;2022-10-16T02:23:55;6.03;;;4.47;;
19339;SDS011;9804;52.350;6.684;2022-10-16T02:26:27;8.70;;;5.43;;
19339;SDS011;9804;52.350;6.684;2022-10-16T02:29:02;9.32;;;4.72;;
19339;SDS011;9804;52.350;6.684;2022-10-16T02:31:34;8.25;;;5.28;;
19339;SDS011;9804;52.350;6.684;2022-10-16T02:34:03;10.75;;;5.00;;
19339;SDS011;9804;52.350;6.684;2022-10-16T02:36:30;8.70;;;5.45;;
19339;SDS011;9804;52.350;6.684;2022-10-16T02:38:57;11.48;;;5.57;;
19339;SDS011;9804;52.350;6.684;2022-10-16T02:41:26;11.18;;;5.32;;
19339;SDS011;9804;52.350;6.684;2022-10-16T02:43:52;9.27;;;4.97;;
19339;SDS011;9804;52.350;6.684;2022-10-16T02:46:17;8.35;;;5.00;;
19339;SDS011;9804;52.350;6.684;2022-10-16T02:48:43;9.60;;;4.95;;
19339;SDS011;9804;52.350;6.684;2022-10-16T02:51:09;6.93;;;4.90;;
19339;SDS011;9804;52.350;6.684;2022-10-16T02:53:34;7.30;;;5.68;;
19339;SDS011;9804;52.350;6.684;2022-10-16T02:55:59;8.10;;;5.25;;
19339;SDS011;9804;52.350;6.684;2022-10-16T02:58:25;9.45;;;5.43;;
19339;SDS011;9804;52.350;6.684;2022-10-16T03:00:50;7.82;;;5.28;;
19339;SDS011;9804;52.350;6.684;2022-10-16T03:03:15;8.10;;;5.28;;
19339;SDS011;9804;52.350;6.684;2022-10-16T03:05:42;7.63;;;5.07;;
19339;SDS011;9804;52.350;6.684;2022-10-16T03:08:10;9.77;;;5.55;;
19339;SDS011;9804;52.350;6.684;2022-10-16T03:10:36;6.97;;;4.85;;
19339;SDS011;9804;52.350;6.684;2022-10-16T03:13:01;9.00;;;5.00;;
19339;SDS011;9804;52.350;6.684;2022-10-16T03:15:27;6.80;;;4.07;;
19339;SDS011;9804;52.350;6.684;2022-10-16T03:17:53;7.07;;;4.55;;
19339;SDS011;9804;52.350;6.684;2022-10-16T03:20:19;6.97;;;4.70;;
19339;SDS011;9804;52.350;6.684;2022-10-16T03:22:44;6.43;;;4.22;;
19339;SDS011;9804;52.350;6.684;2022-10-16T03:25:10;5.70;;;4.38;;
19339;SDS011;9804;52.350;6.684;2022-10-16T03:27:35;5.43;;;4.22;;
19339;SDS011;9804;52.350;6.684;2022-10-16T03:30:00;7.63;;;4.53;;
19339;SDS011;9804;52.350;6.684;2022-10-16T03:32:26;9.73;;;4.72;;
19339;SDS011;9804;52.350;6.684;2022-10-16T03:34:53;7.43;;;4.30;;
19339;SDS011;9804;52.350;6.684;2022-10-16T03:37:19;7.80;;;4.50;;
19339;SDS011;9804;52.350;6.684;2022-10-16T03:39:44;5.75;;;3.83;;
19339;SDS011;9804;52.350;6.684;2022-10-16T03:42:10;9.80;;;3.90;;
19339;SDS011;9804;52.350;6.684;2022-10-16T03:44:35;5.18;;;3.65;;
19339;SDS011;9804;52.350;6.684;2022-10-16T03:47:01;5.32;;;4.10;;
19339;SDS011;9804;52.350;6.684;2022-10-16T03:49:26;9.57;;;3.97;;
19339;SDS011;9804;52.350;6.684;2022-10-16T03:51:51;7.03;;;4.10;;
19339;SDS011;9804;52.350;6.684;2022-10-16T03:54:17;6.63;;;4.00;;
19339;SDS011;9804;52.350;6.684;2022-10-16T03:56:42;5.53;;;3.90;;
19339;SDS011;9804;52.350;6.684;2022-10-16T03:59:07;7.18;;;3.70;;
19339;SDS011;9804;52.350;6.684;2022-10-16T04:01:33;6.35;;;3.33;;
19339;SDS011;9804;52.350;6.684;2022-10-16T04:03:58;7.90;;;4.30;;
19339;SDS011;9804;52.350;6.684;2022-10-16T04:06:24;6.63;;;4.28;;
19339;SDS011;9804;52.350;6.684;2022-10-16T04:08:49;10.27;;;3.85;;
19339;SDS011;9804;52.350;6.684;2022-10-16T04:11:14;6.50;;;3.60;;
19339;SDS011;9804;52.350;6.684;2022-10-16T04:13:40;6.05;;;3.90;;
19339;SDS011;9804;52.350;6.684;2022-10-16T04:16:06;4.28;;;3.13;;
19339;SDS011;9804;52.350;6.684;2022-10-16T04:18:31;7.13;;;3.65;;
19339;SDS011;9804;52.350;6.684;2022-10-16T04:21:01;4.65;;;3.42;;
19339;SDS011;9804;52.350;6.684;2022-10-16T04:23:27;3.78;;;3.42;;
19339;SDS011;9804;52.350;6.684;2022-10-16T04:25:53;5.40;;;3.28;;
19339;SDS011;9804;52.350;6.684;2022-10-16T04:28:18;5.47;;;3.40;;
19339;SDS011;9804;52.350;6.684;2022-10-16T04:30:43;8.95;;;3.50;;
19339;SDS011;9804;52.350;6.684;2022-10-16T04:33:09;4.55;;;3.55;;
19339;SDS011;9804;52.350;6.684;2022-10-16T04:35:34;5.45;;;4.03;;
19339;SDS011;9804;52.350;6.684;2022-10-16T04:38:00;6.45;;;3.67;;
19339;SDS011;9804;52.350;6.684;2022-10-16T04:40:25;8.18;;;4.03;;
19339;SDS011;9804;52.350;6.684;2022-10-16T04:42:51;7.40;;;3.83;;
19339;SDS011;9804;52.350;6.684;2022-10-16T04:45:16;6.47;;;3.60;;
19339;SDS011;9804;52.350;6.684;2022-10-16T04:47:42;6.68;;;3.88;;
19339;SDS011;9804;52.350;6.684;2022-10-16T04:50:07;6.93;;;3.70;;
19339;SDS011;9804;52.350;6.684;2022-10-16T04:52:33;8.55;;;3.47;;
19339;SDS011;9804;52.350;6.684;2022-10-16T04:54:59;7.40;;;4.05;;
19339;SDS011;9804;52.350;6.684;2022-10-16T04:57:27;4.72;;;3.85;;
19339;SDS011;9804;52.350;6.684;2022-10-16T04:59:53;5.63;;;3.55;;
19339;SDS011;9804;52.350;6.684;2022-10-16T05:02:18;7.85;;;4.07;;
19339;SDS011;9804;52.350;6.684;2022-10-16T05:04:44;6.75;;;3.50;;
19339;SDS011;9804;52.350;6.684;2022-10-16T05:07:09;5.40;;;3.30;;
19339;SDS011;9804;52.350;6.684;2022-10-16T05:09:34;6.78;;;3.40;;
19339;SDS011;9804;52.350;6.684;2022-10-16T05:12:00;4.57;;;3.20;;
19339;SDS011;9804;52.350;6.684;2022-10-16T05:14:25;6.55;;;3.38;;
19339;SDS011;9804;52.350;6.684;2022-10-16T05:16:50;5.82;;;3.22;;
19339;SDS011;9804;52.350;6.684;2022-10-16T05:19:16;3.63;;;2.88;;
19339;SDS011;9804;52.350;6.684;2022-10-16T05:21:42;5.45;;;3.25;;
19339;SDS011;9804;52.350;6.684;2022-10-16T05:24:07;5.03;;;2.92;;
19339;SDS011;9804;52.350;6.684;2022-10-16T05:26:32;5.97;;;3.30;;
19339;SDS011;9804;52.350;6.684;2022-10-16T05:28:58;5.55;;;3.08;;
19339;SDS011;9804;52.350;6.684;2022-10-16T05:31:23;5.00;;;3.42;;
19339;SDS011;9804;52.350;6.684;2022-10-16T05:33:48;4.32;;;3.22;;
19339;SDS011;9804;52.350;6.684;2022-10-16T05:36:14;5.47;;;3.20;;
19339;SDS011;9804;52.350;6.684;2022-10-16T05:38:39;6.50;;;3.42;;
19339;SDS011;9804;52.350;6.684;2022-10-16T05:41:05;4.85;;;3.20;;
19339;SDS011;9804;52.350;6.684;2022-10-16T05:43:31;7.82;;;3.50;;
19339;SDS011;9804;52.350;6.684;2022-10-16T05:45:57;6.05;;;3.00;;
19339;SDS011;9804;52.350;6.684;2022-10-16T05:48:24;4.40;;;3.33;;
19339;SDS011;9804;52.350;6.684;2022-10-16T05:50:59;4.22;;;3.60;;
19339;SDS011;9804;52.350;6.684;2022-10-16T05:53:28;5.85;;;3.15;;
19339;SDS011;9804;52.350;6.684;2022-10-16T05:55:55;5.65;;;3.65;;
19339;SDS011;9804;52.350;6.684;2022-10-16T05:58:21;6.85;;;3.50;;
19339;SDS011;9804;52.350;6.684;2022-10-16T06:00:57;7.45;;;3.63;;
19339;SDS011;9804;52.350;6.684;2022-10-16T06:03:27;5.85;;;3.47;;
19339;SDS011;9804;52.350;6.684;2022-10-16T06:05:53;5.82;;;3.00;;
19339;SDS011;9804;52.350;6.684;2022-10-16T06:08:19;6.30;;;3.33;;
19339;SDS011;9804;52.350;6.684;2022-10-16T06:10:46;6.10;;;3.22;;
19339;SDS011;9804;52.350;6.684;2022-10-16T06:13:12;5.07;;;3.25;;
19339;SDS011;9804;52.350;6.684;2022-10-16T06:15:38;4.72;;;3.22;;
19339;SDS011;9804;52.350;6.684;2022-10-16T06:18:06;4.47;;;2.90;;
19339;SDS011;9804;52.350;6.684;2022-10-16T06:20:32;3.55;;;2.75;;
19339;SDS011;9804;52.350;6.684;2022-10-16T06:22:57;4.78;;;3.15;;
19339;SDS011;9804;52.350;6.684;2022-10-16T06:25:22;4.70;;;3.05;;
19339;SDS011;9804;52.350;6.684;2022-10-16T06:27:47;7.53;;;3.38;;
19339;SDS011;9804;52.350;6.684;2022-10-16T06:30:13;6.72;;;3.28;;
19339;SDS011;9804;52.350;6.684;2022-10-16T06:32:38;5.03;;;2.90;;
19339;SDS011;9804;52.350;6.684;2022-10-16T06:35:04;6.47;;;3.28;;
19339;SDS011;9804;52.350;6.684;2022-10-16T06:37:29;4.50;;;3.10;;
19339;SDS011;9804;52.350;6.684;2022-10-16T06:39:55;11.40;;;3.38;;
19339;SDS011;9804;52.350;6.684;2022-10-16T06:42:20;7.22;;;3.33;;
19339;SDS011;9804;52.350;6.684;2022-10-16T06:44:46;5.95;;;3.38;;
19339;SDS011;9804;52.350;6.684;2022-10-16T06:47:11;4.93;;;3.15;;
19339;SDS011;9804;52.350;6.684;2022-10-16T06:49:36;10.38;;;3.30;;
19339;SDS011;9804;52.350;6.684;2022-10-16T06:52:02;6.70;;;3.20;;
19339;SDS011;9804;52.350;6.684;2022-10-16T06:54:28;7.78;;;2.90;;
19339;SDS011;9804;52.350;6.684;2022-10-16T06:56:53;6.35;;;3.40;;
19339;SDS011;9804;52.350;6.684;2022-10-16T06:59:19;4.20;;;3.28;;
19339;SDS011;9804;52.350;6.684;2022-10-16T07:01:45;8.63;;;3.47;;
19339;SDS011;9804;52.350;6.684;2022-10-16T07:04:11;9.20;;;4.00;;
19339;SDS011;9804;52.350;6.684;2022-10-16T07:06:36;9.23;;;3.85;;
19339;SDS011;9804;52.350;6.684;2022-10-16T07:09:04;6.10;;;3.08;;
19339;SDS011;9804;52.350;6.684;2022-10-16T07:11:31;6.05;;;3.45;;
19339;SDS011;9804;52.350;6.684;2022-10-16T07:13:56;4.40;;;3.05;;
19339;SDS011;9804;52.350;6.684;2022-10-16T07:16:23;7.72;;;3.30;;
19339;SDS011;9804;52.350;6.684;2022-10-16T07:18:51;4.28;;;3.40;;
19339;SDS011;9804;52.350;6.684;2022-10-16T07:21:22;3.42;;;3.10;;
19339;SDS011;9804;52.350;6.684;2022-10-16T07:23:51;5.75;;;3.20;;
19339;SDS011;9804;52.350;6.684;2022-10-16T07:26:16;5.43;;;2.83;;
19339;SDS011;9804;52.350;6.684;2022-10-16T07:28:42;8.85;;;3.15;;
19339;SDS011;9804;52.350;6.684;2022-10-16T07:31:10;4.40;;;2.72;;
19339;SDS011;9804;52.350;6.684;2022-10-16T07:33:38;5.78;;;2.40;;
19339;SDS011;9804;52.350;6.684;2022-10-16T07:36:06;6.15;;;3.08;;
19339;SDS011;9804;52.350;6.684;2022-10-16T07:38:32;7.40;;;2.78;;
19339;SDS011;9804;52.350;6.684;2022-10-16T07:40:58;4.55;;;2.38;;
19339;SDS011;9804;52.350;6.684;2022-10-16T07:43:24;9.20;;;2.85;;
19339;SDS011;9804;52.350;6.684;2022-10-16T07:45:50;3.72;;;2.20;;
19339;SDS011;9804;52.350;6.684;2022-10-16T07:48:16;7.20;;;2.42;;
19339;SDS011;9804;52.350;6.684;2022-10-16T07:50:42;4.07;;;2.25;;
19339;SDS011;9804;52.350;6.684;2022-10-16T07:53:09;6.85;;;2.35;;
19339;SDS011;9804;52.350;6.684;2022-10-16T07:55:35;4.43;;;2.38;;
19339;SDS011;9804;52.350;6.684;2022-10-16T07:58:00;4.95;;;2.00;;
19339;SDS011;9804;52.350;6.684;2022-10-16T08:00:26;4.43;;;2.17;;
19339;SDS011;9804;52.350;6.684;2022-10-16T08:02:51;5.05;;;2.17;;
19339;SDS011;9804;52.350;6.684;2022-10-16T08:05:17;3.30;;;1.80;;
19339;SDS011;9804;52.350;6.684;2022-10-16T08:07:42;4.63;;;2.00;;
19339;SDS011;9804;52.350;6.684;2022-10-16T08:10:11;6.90;;;2.28;;
19339;SDS011;9804;52.350;6.684;2022-10-16T08:12:41;5.28;;;2.30;;
19339;SDS011;9804;52.350;6.684;2022-10-16T08:15:07;5.90;;;2.20;;
19339;SDS011;9804;52.350;6.684;2022-10-16T08:17:33;4.53;;;2.33;;
19339;SDS011;9804;52.350;6.684;2022-10-16T08:19:58;7.63;;;2.33;;
19339;SDS011;9804;52.350;6.684;2022-10-16T08:22:23;6.80;;;2.30;;
19339;SDS011;9804;52.350;6.684;2022-10-16T08:24:49;3.88;;;2.20;;
19339;SDS011;9804;52.350;6.684;2022-10-16T08:27:14;4.32;;;2.03;;
19339;SDS011;9804;52.350;6.684;2022-10-16T08:29:39;5.82;;;2.03;;
19339;SDS011;9804;52.350;6.684;2022-10-16T08:32:05;7.30;;;2.20;;
19339;SDS011;9804;52.350;6.684;2022-10-16T08:34:30;7.15;;;2.05;;
19339;SDS011;9804;52.350;6.684;2022-10-16T08:36:55;5.75;;;1.98;;
19339;SDS011;9804;52.350;6.684;2022-10-16T08:39:21;5.63;;;2.05;;
19339;SDS011;9804;52.350;6.684;2022-10-16T08:44:40;5.95;;;2.05;;
19339;SDS011;9804;52.350;6.684;2022-10-16T08:47:18;5.68;;;1.95;;
19339;SDS011;9804;52.350;6.684;2022-10-16T08:49:57;8.75;;;2.45;;
19339;SDS011;9804;52.350;6.684;2022-10-16T08:52:31;4.38;;;1.80;;
19339;SDS011;9804;52.350;6.684;2022-10-16T08:55:00;4.80;;;1.80;;
19339;SDS011;9804;52.350;6.684;2022-10-16T08:57:26;5.40;;;2.40;;
19339;SDS011;9804;52.350;6.684;2022-10-16T08:59:52;11.23;;;2.53;;
19339;SDS011;9804;52.350;6.684;2022-10-16T09:04:56;5.63;;;2.10;;
19339;SDS011;9804;52.350;6.684;2022-10-16T09:07:46;5.25;;;2.25;;
19339;SDS011;9804;52.350;6.684;2022-10-16T09:15:39;6.68;;;2.08;;
19339;SDS011;9804;52.350;6.684;2022-10-16T09:21:17;2.53;;;1.95;;
19339;SDS011;9804;52.350;6.684;2022-10-16T09:23:48;9.77;;;2.53;;
19339;SDS011;9804;52.350;6.684;2022-10-16T09:26:15;5.22;;;2.10;;
19339;SDS011;9804;52.350;6.684;2022-10-16T09:28:42;4.35;;;2.55;;
19339;SDS011;9804;52.350;6.684;2022-10-16T09:31:18;7.00;;;2.60;;
19339;SDS011;9804;52.350;6.684;2022-10-16T09:33:46;5.22;;;2.78;;
19339;SDS011;9804;52.350;6.684;2022-10-16T09:36:15;7.68;;;2.78;;
19339;SDS011;9804;52.350;6.684;2022-10-16T09:38:41;6.15;;;2.72;;
19339;SDS011;9804;52.350;6.684;2022-10-16T09:43:49;5.65;;;2.20;;
19339;SDS011;9804;52.350;6.684;2022-10-16T09:46:26;8.43;;;2.47;;
19339;SDS011;9804;52.350;6.684;2022-10-16T09:49:00;6.13;;;2.00;;
19339;SDS011;9804;52.350;6.684;2022-10-16T09:51:33;7.57;;;2.28;;
19339;SDS011;9804;52.350;6.684;2022-10-16T09:54:01;6.28;;;2.45;;
19339;SDS011;9804;52.350;6.684;2022-10-16T09:56:38;3.45;;;1.92;;
19339;SDS011;9804;52.350;6.684;2022-10-16T09:59:17;4.45;;;2.13;;
19339;SDS011;9804;52.350;6.684;2022-10-16T10:01:44;11.18;;;2.72;;
19339;SDS011;9804;52.350;6.684;2022-10-16T10:04:12;10.85;;;2.70;;
19339;SDS011;9804;52.350;6.684;2022-10-16T10:06:41;8.45;;;2.38;;
19339;SDS011;9804;52.350;6.684;2022-10-16T10:11:53;11.30;;;2.50;;
19339;SDS011;9804;52.350;6.684;2022-10-16T10:14:24;6.78;;;2.33;;
19339;SDS011;9804;52.350;6.684;2022-10-16T10:19:29;5.93;;;1.92;;
19339;SDS011;9804;52.350;6.684;2022-10-16T10:22:12;6.55;;;2.30;;
19339;SDS011;9804;52.350;6.684;2022-10-16T10:24:44;7.63;;;2.47;;
19339;SDS011;9804;52.350;6.684;2022-10-16T10:27:19;8.13;;;2.10;;
19339;SDS011;9804;52.350;6.684;2022-10-16T10:30:01;6.65;;;2.20;;
19339;SDS011;9804;52.350;6.684;2022-10-16T10:32:45;5.00;;;1.95;;
19339;SDS011;9804;52.350;6.684;2022-10-16T10:46:43;8.55;;;2.67;;
19339;SDS011;9804;52.350;6.684;2022-10-16T10:52:02;7.32;;;1.90;;
19339;SDS011;9804;52.350;6.684;2022-10-16T10:55:06;9.40;;;2.42;;
19339;SDS011;9804;52.350;6.684;2022-10-16T10:58:04;11.70;;;1.95;;
19339;SDS011;9804;52.350;6.684;2022-10-16T11:00:48;8.82;;;1.70;;
19339;SDS011;9804;52.350;6.684;2022-10-16T11:06:12;14.32;;;1.85;;
19339;SDS011;9804;52.350;6.684;2022-10-16T11:08:47;12.80;;;2.28;;
19339;SDS011;9804;52.350;6.684;2022-10-16T11:11:19;8.82;;;1.90;;
19339;SDS011;9804;52.350;6.684;2022-10-16T11:16:22;11.57;;;1.92;;
19339;SDS011;9804;52.350;6.684;2022-10-16T11:19:02;13.20;;;2.15;;
19339;SDS011;9804;52.350;6.684;2022-10-16T11:21:41;10.73;;;2.22;;
19339;SDS011;9804;52.350;6.684;2022-10-16T11:24:19;11.27;;;2.20;;
19339;SDS011;9804;52.350;6.684;2022-10-16T11:26:48;8.35;;;1.80;;
19339;SDS011;9804;52.350;6.684;2022-10-16T11:29:18;10.85;;;2.28;;
19339;SDS011;9804;52.350;6.684;2022-10-16T11:31:49;8.80;;;1.75;;
19339;SDS011;9804;52.350;6.684;2022-10-16T11:34:31;6.88;;;1.50;;
19339;SDS011;9804;52.350;6.684;2022-10-16T11:39:46;10.32;;;1.83;;
19339;SDS011;9804;52.350;6.684;2022-10-16T11:42:15;9.43;;;2.35;;
19339;SDS011;9804;52.350;6.684;2022-10-16T11:48:06;10.68;;;2.17;;
19339;SDS011;9804;52.350;6.684;2022-10-16T11:53:11;10.18;;;1.42;;
19339;SDS011;9804;52.350;6.684;2022-10-16T11:55:43;8.07;;;1.88;;
19339;SDS011;9804;52.350;6.684;2022-10-16T12:00:55;12.00;;;1.70;;
19339;SDS011;9804;52.350;6.684;2022-10-16T12:03:25;10.23;;;1.70;;
19339;SDS011;9804;52.350;6.684;2022-10-16T12:05:58;9.23;;;1.63;;
19339;SDS011;9804;52.350;6.684;2022-10-16T12:08:26;10.25;;;2.03;;
19339;SDS011;9804;52.350;6.684;2022-10-16T12:10:52;14.50;;;1.88;;
19339;SDS011;9804;52.350;6.684;2022-10-16T12:13:36;8.07;;;1.50;;
19339;SDS011;9804;52.350;6.684;2022-10-16T12:16:04;7.75;;;1.30;;
19339;SDS011;9804;52.350;6.684;2022-10-16T12:18:50;7.50;;;1.67;;
19339;SDS011;9804;52.350;6.684;2022-10-16T12:21:34;11.98;;;1.45;;
19339;SDS011;9804;52.350;6.684;2022-10-16T12:24:00;7.35;;;1.48;;
19339;SDS011;9804;52.350;6.684;2022-10-16T12:26:30;6.97;;;1.60;;
19339;SDS011;9804;52.350;6.684;2022-10-16T12:29:10;6.07;;;1.50;;
19339;SDS011;9804;52.350;6.684;2022-10-16T12:31:56;5.50;;;1.45;;
19339;SDS011;9804;52.350;6.684;2022-10-16T12:36:48;7.82;;;1.88;;
19339;SDS011;9804;52.350;6.684;2022-10-16T12:39:24;7.25;;;1.50;;
19339;SDS011;9804;52.350;6.684;2022-10-16T12:44:50;11.50;;;1.60;;
19339;SDS011;9804;52.350;6.684;2022-10-16T12:47:19;9.02;;;1.88;;
19339;SDS011;9804;52.350;6.684;2022-10-16T12:49:51;8.23;;;1.83;;
19339;SDS011;9804;52.350;6.684;2022-10-16T12:54:58;10.65;;;1.92;;
19339;SDS011;9804;52.350;6.684;2022-10-16T12:57:37;10.27;;;1.92;;
19339;SDS011;9804;52.350;6.684;2022-10-16T13:02:49;8.55;;;1.67;;
19339;SDS011;9804;52.350;6.684;2022-10-16T13:05:30;10.05;;;1.70;;
19339;SDS011;9804;52.350;6.684;2022-10-16T13:08:15;5.28;;;1.77;;
19339;SDS011;9804;52.350;6.684;2022-10-16T13:16:57;10.45;;;1.80;;
19339;SDS011;9804;52.350;6.684;2022-10-16T13:20:04;6.88;;;1.65;;
19339;SDS011;9804;52.350;6.684;2022-10-16T13:28:03;9.35;;;1.60;;
19339;SDS011;9804;52.350;6.684;2022-10-16T13:30:31;11.38;;;1.92;;
19339;SDS011;9804;52.350;6.684;2022-10-16T13:33:24;9.13;;;1.67;;
19339;SDS011;9804;52.350;6.684;2022-10-16T13:36:24;10.02;;;1.70;;
19339;SDS011;9804;52.350;6.684;2022-10-16T13:41:28;7.38;;;1.70;;
19339;SDS011;9804;52.350;6.684;2022-10-16T13:43:54;7.03;;;1.10;;
19339;SDS011;9804;52.350;6.684;2022-10-16T13:46:22;10.77;;;2.10;;
19339;SDS011;9804;52.350;6.684;2022-10-16T13:51:27;7.95;;;1.50;;
19339;SDS011;9804;52.350;6.684;2022-10-16T13:53:54;10.38;;;1.70;;
19339;SDS011;9804;52.350;6.684;2022-10-16T13:56:22;10.77;;;1.90;;
19339;SDS011;9804;52.350;6.684;2022-10-16T14:01:50;9.35;;;1.98;;
19339;SDS011;9804;52.350;6.684;2022-10-16T14:04:16;9.25;;;1.50;;
19339;SDS011;9804;52.350;6.684;2022-10-16T14:06:43;8.10;;;1.42;;
19339;SDS011;9804;52.350;6.684;2022-10-16T14:09:26;10.85;;;1.80;;
19339;SDS011;9804;52.350;6.684;2022-10-16T14:12:00;9.57;;;1.73;;
19339;SDS011;9804;52.350;6.684;2022-10-16T14:14:31;13.73;;;2.15;;
19339;SDS011;9804;52.350;6.684;2022-10-16T14:17:00;7.30;;;1.90;;
19339;SDS011;9804;52.350;6.684;2022-10-16T14:19:27;11.10;;;1.88;;
19339;SDS011;9804;52.350;6.684;2022-10-16T14:21:54;11.45;;;1.80;;
19339;SDS011;9804;52.350;6.684;2022-10-16T14:24:30;8.13;;;1.60;;
19339;SDS011;9804;52.350;6.684;2022-10-16T14:26:58;9.60;;;1.88;;
19339;SDS011;9804;52.350;6.684;2022-10-16T14:29:25;12.60;;;1.92;;
19339;SDS011;9804;52.350;6.684;2022-10-16T14:32:01;7.85;;;1.60;;
19339;SDS011;9804;52.350;6.684;2022-10-16T14:34:30;7.63;;;1.50;;
19339;SDS011;9804;52.350;6.684;2022-10-16T14:37:00;5.80;;;1.77;;
19339;SDS011;9804;52.350;6.684;2022-10-16T14:39:32;9.55;;;1.75;;
19339;SDS011;9804;52.350;6.684;2022-10-16T14:41:58;6.20;;;1.42;;
19339;SDS011;9804;52.350;6.684;2022-10-16T14:44:27;8.15;;;1.80;;
19339;SDS011;9804;52.350;6.684;2022-10-16T14:46:55;12.05;;;2.35;;
19339;SDS011;9804;52.350;6.684;2022-10-16T14:49:20;5.28;;;1.73;;
19339;SDS011;9804;52.350;6.684;2022-10-16T14:51:48;9.02;;;1.80;;
19339;SDS011;9804;52.350;6.684;2022-10-16T14:54:14;11.50;;;2.35;;
19339;SDS011;9804;52.350;6.684;2022-10-16T14:59:13;8.50;;;1.65;;
19339;SDS011;9804;52.350;6.684;2022-10-16T15:01:45;6.60;;;1.40;;
19339;SDS011;9804;52.350;6.684;2022-10-16T15:04:11;8.57;;;1.55;;
19339;SDS011;9804;52.350;6.684;2022-10-16T15:06:37;7.60;;;1.75;;
19339;SDS011;9804;52.350;6.684;2022-10-16T15:09:03;9.25;;;1.90;;
19339;SDS011;9804;52.350;6.684;2022-10-16T15:11:28;8.48;;;2.08;;
19339;SDS011;9804;52.350;6.684;2022-10-16T15:13:56;8.13;;;1.52;;
19339;SDS011;9804;52.350;6.684;2022-10-16T15:16:21;10.18;;;1.63;;
19339;SDS011;9804;52.350;6.684;2022-10-16T15:18:46;11.93;;;1.77;;
19339;SDS011;9804;52.350;6.684;2022-10-16T15:21:17;9.82;;;1.75;;
19339;SDS011;9804;52.350;6.684;2022-10-16T15:23:49;11.52;;;1.80;;
19339;SDS011;9804;52.350;6.684;2022-10-16T15:26:15;9.30;;;2.03;;
19339;SDS011;9804;52.350;6.684;2022-10-16T15:28:41;7.15;;;1.83;;
19339;SDS011;9804;52.350;6.684;2022-10-16T15:31:06;9.60;;;1.70;;
19339;SDS011;9804;52.350;6.684;2022-10-16T15:33:31;12.20;;;2.03;;
19339;SDS011;9804;52.350;6.684;2022-10-16T15:35:59;9.60;;;2.00;;
19339;SDS011;9804;52.350;6.684;2022-10-16T15:38:25;6.68;;;2.00;;
19339;SDS011;9804;52.350;6.684;2022-10-16T15:40:52;14.15;;;1.77;;
19339;SDS011;9804;52.350;6.684;2022-10-16T15:43:17;9.02;;;2.25;;
19339;SDS011;9804;52.350;6.684;2022-10-16T15:45:43;5.75;;;1.70;;
19339;SDS011;9804;52.350;6.684;2022-10-16T15:48:12;9.38;;;1.63;;
19339;SDS011;9804;52.350;6.684;2022-10-16T15:50:41;8.38;;;1.80;;
19339;SDS011;9804;52.350;6.684;2022-10-16T15:53:07;14.20;;;2.60;;
19339;SDS011;9804;52.350;6.684;2022-10-16T15:55:33;10.30;;;2.20;;
19339;SDS011;9804;52.350;6.684;2022-10-16T15:57:59;11.95;;;2.05;;
19339;SDS011;9804;52.350;6.684;2022-10-16T16:00:24;10.25;;;1.48;;
19339;SDS011;9804;52.350;6.684;2022-10-16T16:02:53;13.27;;;2.30;;
19339;SDS011;9804;52.350;6.684;2022-10-16T16:05:19;8.95;;;1.73;;
19339;SDS011;9804;52.350;6.684;2022-10-16T16:07:46;6.22;;;1.60;;
19339;SDS011;9804;52.350;6.684;2022-10-16T16:10:12;13.45;;;1.58;;
19339;SDS011;9804;52.350;6.684;2022-10-16T16:12:38;7.20;;;1.55;;
19339;SDS011;9804;52.350;6.684;2022-10-16T16:15:04;14.13;;;1.98;;
19339;SDS011;9804;52.350;6.684;2022-10-16T16:17:31;11.80;;;1.75;;
19339;SDS011;9804;52.350;6.684;2022-10-16T16:19:57;12.38;;;2.25;;
19339;SDS011;9804;52.350;6.684;2022-10-16T16:22:22;11.93;;;1.45;;
19339;SDS011;9804;52.350;6.684;2022-10-16T16:24:48;8.23;;;2.17;;
19339;SDS011;9804;52.350;6.684;2022-10-16T16:27:13;7.13;;;2.10;;
19339;SDS011;9804;52.350;6.684;2022-10-16T16:29:38;7.45;;;2.20;;
19339;SDS011;9804;52.350;6.684;2022-10-16T16:32:04;11.20;;;1.90;;
19339;SDS011;9804;52.350;6.684;2022-10-16T16:34:29;10.75;;;2.13;;
19339;SDS011;9804;52.350;6.684;2022-10-16T16:36:55;9.98;;;2.10;;
19339;SDS011;9804;52.350;6.684;2022-10-16T16:39:21;12.23;;;2.38;;
19339;SDS011;9804;52.350;6.684;2022-10-16T16:41:47;13.88;;;2.22;;
19339;SDS011;9804;52.350;6.684;2022-10-16T16:44:13;9.85;;;2.03;;
19339;SDS011;9804;52.350;6.684;2022-10-16T16:46:40;12.13;;;1.90;;
19339;SDS011;9804;52.350;6.684;2022-10-16T16:49:08;11.65;;;2.05;;
19339;SDS011;9804;52.350;6.684;2022-10-16T16:51:36;12.82;;;1.60;;